Panda — PBCS — position and weather

sailwx.info

Track history (hours):
 
Tides and Currents Weather Stations Pressure Air Temp Water Temp Dewpoint Dewpoint Depression Visibility Wind Speed Wind Dir Waves Ship Positions

Panda

Last reported at 2015-Jul-30 03:33 UTC. Time now 2015-Jul-30 04:05 UTC.
Position N 54°22' E 009°52'.

Length 89 m; draft 4.5 m.

Type: Cargo ship. MMSI: 245014000.

Date/timePositionNaut miles runAvg speedWind from/ knotsBaromVisibWave heightAir tempDewpointWater temp
2015-Jul-30 03:33N 54°22' E 009°52'8 7.6
2015-Jul-30 02:33N 54°18' E 009°41'20 6.8
2015-Jul-29 23:33N 54°02' E 009°18'6 6.1
2015-Jul-29 22:33N 53°57' E 009°14'4 4.3
2015-Jul-29 21:34N 53°54' E 009°09'5 4.7
2015-Jul-29 20:33N 53°51' E 009°02'1111.4
2015-Jul-29 19:33N 53°53' E 008°42'1111.4
2015-Jul-29 18:33N 53°59' E 008°26'1111.0
2015-Jul-29 17:33N 53°59' E 008°07'1010.1
2015-Jul-29 16:33N 53°56' E 007°50'9 9.5
2015-Jul-29 15:33N 53°54' E 007°35'10 9.2
2015-Jul-29 14:29N 53°52' E 007°19'53 8.9
2015-Jul-29 08:33N 53°38' E 005°52'10 9.5
2015-Jul-29 07:32N 53°35' E 005°37'10 9.8
2015-Jul-29 06:33N 53°33' E 005°21'1111.2
2015-Jul-29 05:33N 53°29' E 005°03'132 9.3
2015-Jul-28 15:24N 51°30' E 003°28'8 8.9
2015-Jul-28 14:33N 51°26' E 003°39'1210.1
2015-Jul-28 13:23N 51°23' E 003°57'5 6.2
2015-Jul-28 12:33N 51°22' E 004°05'8 7.9
2015-Jul-28 11:33N 51°20' E 004°17'4 3.7
2015-Jul-28 10:33N 51°16' E 004°17'2 1.6
2015-Jul-28 09:26N 51°15' E 004°14'0 0.0
2015-Jul-28 08:29N 51°15' E 004°14'0 0.0
2015-Jul-28 07:20N 51°15' E 004°14'0 0.0
2015-Jul-28 06:29N 51°15' E 004°14'0 0.0
2015-Jul-28 05:26N 51°15' E 004°14'0 0.0
2015-Jul-28 04:29N 51°15' E 004°14'0 0.0
2015-Jul-28 03:32N 51°15' E 004°14'0 0.0
2015-Jul-28 02:32N 51°15' E 004°14'0 0.0
2015-Jul-28 01:32N 51°15' E 004°14'0 0.0
2015-Jul-28 00:32N 51°15' E 004°14'0 0.0
2015-Jul-27 23:32N 51°15' E 004°14'0 0.0
2015-Jul-27 22:26N 51°15' E 004°14'0 0.0
2015-Jul-27 21:26N 51°15' E 004°14'0 0.0
2015-Jul-27 20:32N 51°15' E 004°14'0 0.0
2015-Jul-27 19:32N 51°15' E 004°14'0 0.0
2015-Jul-27 18:29N 51°15' E 004°14'0 0.0
2015-Jul-27 17:32N 51°15' E 004°14'0 0.0
2015-Jul-27 16:32N 51°15' E 004°14'0 0.0
2015-Jul-27 15:29N 51°15' E 004°14'0 0.0
2015-Jul-27 14:32N 51°15' E 004°14'0 0.0
2015-Jul-27 13:32N 51°15' E 004°14'0 0.0
2015-Jul-27 12:26N 51°15' E 004°14'0 0.0
2015-Jul-27 11:32N 51°15' E 004°14'0 0.0
2015-Jul-27 10:32N 51°15' E 004°14'0 0.0
2015-Jul-27 09:05N 51°15' E 004°14'0 0.0
2015-Jul-27 08:32N 51°15' E 004°14'0 0.0
2015-Jul-27 07:32N 51°15' E 004°14'0 0.0
2015-Jul-27 06:32N 51°15' E 004°14'0 0.0
2015-Jul-27 05:26N 51°15' E 004°14'0 0.0
2015-Jul-27 04:32N 51°15' E 004°14'0 0.0
2015-Jul-27 03:22N 51°15' E 004°14'0 0.0
2015-Jul-27 02:28N 51°15' E 004°14'0 0.0
2015-Jul-27 01:31N 51°15' E 004°14'0 0.0
2015-Jul-27 00:28N 51°15' E 004°14'0 0.0
2015-Jul-26 23:31N 51°15' E 004°14'0 0.0
2015-Jul-26 22:16N 51°15' E 004°14'0 0.0
2015-Jul-26 21:31N 51°15' E 004°14'0 0.0
2015-Jul-26 20:25N 51°15' E 004°14'0 0.0
2015-Jul-26 19:28N 51°15' E 004°14'0 0.0
2015-Jul-26 18:28N 51°15' E 004°14'0 0.0
2015-Jul-26 17:31N 51°15' E 004°14'0 0.0
2015-Jul-26 16:31N 51°15' E 004°14'0 0.0
2015-Jul-26 15:31N 51°15' E 004°14'0 0.0
2015-Jul-26 14:28N 51°15' E 004°14'0 0.0
2015-Jul-26 13:28N 51°15' E 004°14'0 0.0
2015-Jul-26 12:28N 51°15' E 004°14'0 0.0
2015-Jul-26 11:25N 51°15' E 004°14'0 0.0
2015-Jul-26 10:28N 51°15' E 004°14'0 0.0
2015-Jul-26 09:31N 51°15' E 004°14'0 0.0
2015-Jul-26 08:31N 51°15' E 004°14'0 0.0
2015-Jul-26 07:31N 51°15' E 004°14'0 0.0
2015-Jul-26 06:31N 51°15' E 004°14'0 0.0
2015-Jul-26 05:13N 51°15' E 004°14'0 0.0
2015-Jul-26 04:31N 51°15' E 004°14'0 0.0
2015-Jul-26 03:31N 51°15' E 004°14'0 0.0
2015-Jul-26 02:31N 51°15' E 004°14'0 0.0
2015-Jul-26 01:22N 51°15' E 004°14'0 0.0
2015-Jul-26 00:31N 51°15' E 004°14'0 0.0
2015-Jul-25 23:31N 51°15' E 004°14'0 0.0
2015-Jul-25 22:25N 51°15' E 004°14'0 0.0
2015-Jul-25 21:25N 51°15' E 004°14'0 0.0
2015-Jul-25 20:31N 51°15' E 004°14'0 0.0
2015-Jul-25 18:28N 51°15' E 004°14'0 0.0
2015-Jul-25 17:27N 51°15' E 004°14'0 0.0
2015-Jul-25 16:30N 51°15' E 004°14'0 0.0
2015-Jul-25 15:33N 51°15' E 004°14'0 0.0
2015-Jul-25 14:33N 51°15' E 004°14'0 0.0
2015-Jul-25 13:33N 51°15' E 004°14'0 0.0
2015-Jul-25 12:33N 51°15' E 004°14'0 0.0
2015-Jul-25 11:30N 51°15' E 004°14'1 0.6
2015-Jul-25 10:33N 51°16' E 004°14'2 2.2
2015-Jul-25 09:33N 51°16' E 004°18'9 8.5
2015-Jul-25 08:31N 51°24' E 004°11'8 8.6
2015-Jul-25 07:33N 51°24' E 003°58'1010.4
2015-Jul-25 06:33N 51°24' E 003°41'1110.7
2015-Jul-25 05:33N 51°31' E 003°27'16 4.0
2015-Jul-25 01:31N 51°45' E 003°18'8 8.4
2015-Jul-25 00:33N 51°48' E 003°05'59 9.4
2015-Jul-24 18:16N 52°29' E 001°56'7 9.3
2015-Jul-24 17:33N 52°34' E 001°48'3 2.8
2015-Jul-24 16:33N 52°36' E 001°45'0 0.0
2015-Jul-24 15:33N 52°36' E 001°45'0 0.0
2015-Jul-24 14:33N 52°36' E 001°45'0 0.0
2015-Jul-24 13:33N 52°36' E 001°45'0 0.0
2015-Jul-24 12:33N 52°36' E 001°45'0 0.0
2015-Jul-24 11:33N 52°36' E 001°45'0 0.1
2015-Jul-24 10:33N 52°36' E 001°45'0 0.1
2015-Jul-24 09:33N 52°36' E 001°45'0 0.0
2015-Jul-24 08:33N 52°36' E 001°45'0 0.0
2015-Jul-24 07:33N 52°36' E 001°45'0 0.0
2015-Jul-24 06:33N 52°36' E 001°45'0 0.0
2015-Jul-24 05:33N 52°36' E 001°45'0 0.0
2015-Jul-24 04:32N 52°36' E 001°45'0 0.1
2015-Jul-24 03:32N 52°36' E 001°45'0 0.0
2015-Jul-24 02:32N 52°36' E 001°45'0 0.0
2015-Jul-24 01:32N 52°36' E 001°45'0 0.0
2015-Jul-24 00:32N 52°36' E 001°45'0 0.0
2015-Jul-23 23:32N 52°36' E 001°45'0 0.0
2015-Jul-23 22:32N 52°36' E 001°45'0 0.1
2015-Jul-23 21:32N 52°36' E 001°45'0 0.0
2015-Jul-23 20:32N 52°36' E 001°45'0 0.0
2015-Jul-23 19:32N 52°36' E 001°45'0 0.0
2015-Jul-23 18:32N 52°36' E 001°45'0 0.0
2015-Jul-23 17:32N 52°36' E 001°45'0 0.0
2015-Jul-23 16:32N 52°36' E 001°45'0 0.1
2015-Jul-23 15:32N 52°36' E 001°45'0 0.1
2015-Jul-23 14:32N 52°36' E 001°45'0 0.0
2015-Jul-23 13:32N 52°36' E 001°45'0 0.0
2015-Jul-23 12:32N 52°36' E 001°45'0 0.0
2015-Jul-23 11:32N 52°36' E 001°45'0 0.0
2015-Jul-23 10:32N 52°36' E 001°45'0 0.1
2015-Jul-23 09:32N 52°36' E 001°45'0 0.1
2015-Jul-23 08:33N 52°36' E 001°45'1 1.2
2015-Jul-23 07:31N 52°35' E 001°44'0 0.0
2015-Jul-23 06:31N 52°35' E 001°44'0 0.0
2015-Jul-23 05:31N 52°35' E 001°44'0 0.0
2015-Jul-23 04:31N 52°35' E 001°44'0 0.0
2015-Jul-23 03:31N 52°35' E 001°44'0 0.0
2015-Jul-23 02:31N 52°35' E 001°44'0 0.0
2015-Jul-23 01:31N 52°35' E 001°44'0 0.0
2015-Jul-23 00:31N 52°35' E 001°44'0 0.0
2015-Jul-22 23:31N 52°35' E 001°44'0 0.0
2015-Jul-22 22:31N 52°35' E 001°44'0 0.0
2015-Jul-22 21:31N 52°35' E 001°44'0 0.0
2015-Jul-22 20:31N 52°35' E 001°44'0 0.0
2015-Jul-22 19:31N 52°35' E 001°44'0 0.0
2015-Jul-22 18:31N 52°35' E 001°44'0 0.0
2015-Jul-22 17:34N 52°35' E 001°44'0 0.0
2015-Jul-22 16:33N 52°35' E 001°44'0 0.0
2015-Jul-22 15:33N 52°35' E 001°44'0 0.0
2015-Jul-22 14:33N 52°35' E 001°44'0 0.0
2015-Jul-22 13:33N 52°35' E 001°44'0 0.0
2015-Jul-22 12:33N 52°35' E 001°44'0 0.0
2015-Jul-22 11:33N 52°35' E 001°44'0 0.0
2015-Jul-22 10:33N 52°35' E 001°44'0 0.0
2015-Jul-22 09:33N 52°35' E 001°44'0 0.0
2015-Jul-22 08:33N 52°35' E 001°44'0 0.0
2015-Jul-22 07:33N 52°35' E 001°44'0 0.0
2015-Jul-22 06:33N 52°35' E 001°44'0 0.0
2015-Jul-22 05:33N 52°35' E 001°44'0 0.0
2015-Jul-22 04:33N 52°35' E 001°44'0 0.0
2015-Jul-22 03:33N 52°35' E 001°44'0 0.0
2015-Jul-22 02:33N 52°35' E 001°44'0 0.0
2015-Jul-22 01:33N 52°35' E 001°44'0 0.0
2015-Jul-22 00:33N 52°35' E 001°44'0 0.0
2015-Jul-21 23:33N 52°35' E 001°44'0 0.0
2015-Jul-21 22:33N 52°35' E 001°44'0 0.0
2015-Jul-21 21:33N 52°35' E 001°44'0 0.0
2015-Jul-21 20:33N 52°35' E 001°44'0 0.0
2015-Jul-21 19:33N 52°35' E 001°44'0 0.0
2015-Jul-21 18:33N 52°35' E 001°44'0 0.0
2015-Jul-21 17:33N 52°35' E 001°44'0 0.0
2015-Jul-21 16:33N 52°35' E 001°44'0 0.0
2015-Jul-21 15:33N 52°35' E 001°44'0 0.0
2015-Jul-21 14:33N 52°35' E 001°44'0 0.0
2015-Jul-21 13:33N 52°35' E 001°44'1 1.3
2015-Jul-21 12:32N 52°36' E 001°46'0 0.0
2015-Jul-21 11:32N 52°36' E 001°46'0 0.0
2015-Jul-21 10:32N 52°36' E 001°46'0 0.0
2015-Jul-21 09:32N 52°36' E 001°46'6 6.3
2015-Jul-21 08:33N 52°42' E 001°46'1110.9
2015-Jul-21 07:33N 52°51' E 001°37'10 9.7
2015-Jul-21 06:33N 52°59' E 001°29'136110.4
2015-Jul-21 05:19N 54°39' W 001°08'8216.9
2015-Jul-21 00:29N 53°41' E 000°31'9 9.2
2015-Jul-20 23:33N 53°48' E 000°23'10 9.9
2015-Jul-20 22:33N 53°56' E 000°12'1010.3
2015-Jul-20 21:33N 54°05' E 000°02'1110.9
2015-Jul-20 20:33N 54°13' W 000°09'1111.4
2015-Jul-20 19:33N 54°22' W 000°21'1211.9
2015-Jul-20 18:33N 54°31' W 000°34'1111.4
2015-Jul-20 17:33N 54°37' W 000°51'10 9.4
2015-Jul-20 16:27N 54°38' W 001°09'4 1.4
2015-Jul-20 13:21N 54°35' W 001°14'0 0.0
2015-Jul-20 12:24N 54°35' W 001°14'0 0.0
2015-Jul-20 11:27N 54°35' W 001°14'0 0.0
2015-Jul-20 05:27N 54°35' W 001°14'  
Track history (hours):
 
Tides and Currents Weather Stations Pressure Air Temp Water Temp Dewpoint Dewpoint Depression Visibility Wind Speed Wind Dir Waves Ship Positions

Panda

Last reported at 2015-Jul-30 03:33 UTC. Time now 2015-Jul-30 04:05 UTC.
Position N 54°22' E 009°52'.

Length 89 m; draft 4.5 m.

Type: Cargo ship. MMSI: 245014000.

Date/timePositionNaut miles runAvg speedWind from/ knotsBaromVisibWave heightAir tempDewpointWater temp
2015-Jul-30 03:33N 54°22' E 009°52'8 7.6
2015-Jul-30 02:33N 54°18' E 009°41'20 6.8
2015-Jul-29 23:33N 54°02' E 009°18'6 6.1
2015-Jul-29 22:33N 53°57' E 009°14'4 4.3
2015-Jul-29 21:34N 53°54' E 009°09'5 4.7
2015-Jul-29 20:33N 53°51' E 009°02'1111.4
2015-Jul-29 19:33N 53°53' E 008°42'1111.4
2015-Jul-29 18:33N 53°59' E 008°26'1111.0
2015-Jul-29 17:33N 53°59' E 008°07'1010.1
2015-Jul-29 16:33N 53°56' E 007°50'9 9.5
2015-Jul-29 15:33N 53°54' E 007°35'10 9.2
2015-Jul-29 14:29N 53°52' E 007°19'53 8.9
2015-Jul-29 08:33N 53°38' E 005°52'10 9.5
2015-Jul-29 07:32N 53°35' E 005°37'10 9.8
2015-Jul-29 06:33N 53°33' E 005°21'1111.2
2015-Jul-29 05:33N 53°29' E 005°03'132 9.3
2015-Jul-28 15:24N 51°30' E 003°28'8 8.9
2015-Jul-28 14:33N 51°26' E 003°39'1210.1
2015-Jul-28 13:23N 51°23' E 003°57'5 6.2
2015-Jul-28 12:33N 51°22' E 004°05'8 7.9
2015-Jul-28 11:33N 51°20' E 004°17'4 3.7
2015-Jul-28 10:33N 51°16' E 004°17'2 1.6
2015-Jul-28 09:26N 51°15' E 004°14'0 0.0
2015-Jul-28 08:29N 51°15' E 004°14'0 0.0
2015-Jul-28 07:20N 51°15' E 004°14'0 0.0
2015-Jul-28 06:29N 51°15' E 004°14'0 0.0
2015-Jul-28 05:26N 51°15' E 004°14'0 0.0
2015-Jul-28 04:29N 51°15' E 004°14'0 0.0
2015-Jul-28 03:32N 51°15' E 004°14'0 0.0
2015-Jul-28 02:32N 51°15' E 004°14'0 0.0
2015-Jul-28 01:32N 51°15' E 004°14'0 0.0
2015-Jul-28 00:32N 51°15' E 004°14'0 0.0
2015-Jul-27 23:32N 51°15' E 004°14'0 0.0
2015-Jul-27 22:26N 51°15' E 004°14'0 0.0
2015-Jul-27 21:26N 51°15' E 004°14'0 0.0
2015-Jul-27 20:32N 51°15' E 004°14'0 0.0
2015-Jul-27 19:32N 51°15' E 004°14'0 0.0
2015-Jul-27 18:29N 51°15' E 004°14'0 0.0
2015-Jul-27 17:32N 51°15' E 004°14'0 0.0
2015-Jul-27 16:32N 51°15' E 004°14'0 0.0
2015-Jul-27 15:29N 51°15' E 004°14'0 0.0
2015-Jul-27 14:32N 51°15' E 004°14'0 0.0
2015-Jul-27 13:32N 51°15' E 004°14'0 0.0
2015-Jul-27 12:26N 51°15' E 004°14'0 0.0
2015-Jul-27 11:32N 51°15' E 004°14'0 0.0
2015-Jul-27 10:32N 51°15' E 004°14'0 0.0
2015-Jul-27 09:05N 51°15' E 004°14'0 0.0
2015-Jul-27 08:32N 51°15' E 004°14'0 0.0
2015-Jul-27 07:32N 51°15' E 004°14'0 0.0
2015-Jul-27 06:32N 51°15' E 004°14'0 0.0
2015-Jul-27 05:26N 51°15' E 004°14'0 0.0
2015-Jul-27 04:32N 51°15' E 004°14'0 0.0
2015-Jul-27 03:22N 51°15' E 004°14'0 0.0
2015-Jul-27 02:28N 51°15' E 004°14'0 0.0
2015-Jul-27 01:31N 51°15' E 004°14'0 0.0
2015-Jul-27 00:28N 51°15' E 004°14'0 0.0
2015-Jul-26 23:31N 51°15' E 004°14'0 0.0
2015-Jul-26 22:16N 51°15' E 004°14'0 0.0
2015-Jul-26 21:31N 51°15' E 004°14'0 0.0
2015-Jul-26 20:25N 51°15' E 004°14'0 0.0
2015-Jul-26 19:28N 51°15' E 004°14'0 0.0
2015-Jul-26 18:28N 51°15' E 004°14'0 0.0
2015-Jul-26 17:31N 51°15' E 004°14'0 0.0
2015-Jul-26 16:31N 51°15' E 004°14'0 0.0
2015-Jul-26 15:31N 51°15' E 004°14'0 0.0
2015-Jul-26 14:28N 51°15' E 004°14'0 0.0
2015-Jul-26 13:28N 51°15' E 004°14'0 0.0
2015-Jul-26 12:28N 51°15' E 004°14'0 0.0
2015-Jul-26 11:25N 51°15' E 004°14'0 0.0
2015-Jul-26 10:28N 51°15' E 004°14'0 0.0
2015-Jul-26 09:31N 51°15' E 004°14'0 0.0
2015-Jul-26 08:31N 51°15' E 004°14'0 0.0
2015-Jul-26 07:31N 51°15' E 004°14'0 0.0
2015-Jul-26 06:31N 51°15' E 004°14'0 0.0
2015-Jul-26 05:13N 51°15' E 004°14'0 0.0
2015-Jul-26 04:31N 51°15' E 004°14'0 0.0
2015-Jul-26 03:31N 51°15' E 004°14'0 0.0
2015-Jul-26 02:31N 51°15' E 004°14'0 0.0
2015-Jul-26 01:22N 51°15' E 004°14'0 0.0
2015-Jul-26 00:31N 51°15' E 004°14'0 0.0
2015-Jul-25 23:31N 51°15' E 004°14'0 0.0
2015-Jul-25 22:25N 51°15' E 004°14'0 0.0
2015-Jul-25 21:25N 51°15' E 004°14'0 0.0
2015-Jul-25 20:31N 51°15' E 004°14'0 0.0
2015-Jul-25 18:28N 51°15' E 004°14'0 0.0
2015-Jul-25 17:27N 51°15' E 004°14'0 0.0
2015-Jul-25 16:30N 51°15' E 004°14'0 0.0
2015-Jul-25 15:33N 51°15' E 004°14'0 0.0
2015-Jul-25 14:33N 51°15' E 004°14'0 0.0
2015-Jul-25 13:33N 51°15' E 004°14'0 0.0
2015-Jul-25 12:33N 51°15' E 004°14'0 0.0
2015-Jul-25 11:30N 51°15' E 004°14'1 0.6
2015-Jul-25 10:33N 51°16' E 004°14'2 2.2
2015-Jul-25 09:33N 51°16' E 004°18'9 8.5
2015-Jul-25 08:31N 51°24' E 004°11'8 8.6
2015-Jul-25 07:33N 51°24' E 003°58'1010.4
2015-Jul-25 06:33N 51°24' E 003°41'1110.7
2015-Jul-25 05:33N 51°31' E 003°27'16 4.0
2015-Jul-25 01:31N 51°45' E 003°18'8 8.4
2015-Jul-25 00:33N 51°48' E 003°05'59 9.4
2015-Jul-24 18:16N 52°29' E 001°56'7 9.3
2015-Jul-24 17:33N 52°34' E 001°48'3 2.8
2015-Jul-24 16:33N 52°36' E 001°45'0 0.0
2015-Jul-24 15:33N 52°36' E 001°45'0 0.0
2015-Jul-24 14:33N 52°36' E 001°45'0 0.0
2015-Jul-24 13:33N 52°36' E 001°45'0 0.0
2015-Jul-24 12:33N 52°36' E 001°45'0 0.0
2015-Jul-24 11:33N 52°36' E 001°45'0 0.1
2015-Jul-24 10:33N 52°36' E 001°45'0 0.1
2015-Jul-24 09:33N 52°36' E 001°45'0 0.0
2015-Jul-24 08:33N 52°36' E 001°45'0 0.0
2015-Jul-24 07:33N 52°36' E 001°45'0 0.0
2015-Jul-24 06:33N 52°36' E 001°45'0 0.0
2015-Jul-24 05:33N 52°36' E 001°45'0 0.0
2015-Jul-24 04:32N 52°36' E 001°45'0 0.1
2015-Jul-24 03:32N 52°36' E 001°45'0 0.0
2015-Jul-24 02:32N 52°36' E 001°45'0 0.0
2015-Jul-24 01:32N 52°36' E 001°45'0 0.0
2015-Jul-24 00:32N 52°36' E 001°45'0 0.0
2015-Jul-23 23:32N 52°36' E 001°45'0 0.0
2015-Jul-23 22:32N 52°36' E 001°45'0 0.1
2015-Jul-23 21:32N 52°36' E 001°45'0 0.0
2015-Jul-23 20:32N 52°36' E 001°45'0 0.0
2015-Jul-23 19:32N 52°36' E 001°45'0 0.0
2015-Jul-23 18:32N 52°36' E 001°45'0 0.0
2015-Jul-23 17:32N 52°36' E 001°45'0 0.0
2015-Jul-23 16:32N 52°36' E 001°45'0 0.1
2015-Jul-23 15:32N 52°36' E 001°45'0 0.1
2015-Jul-23 14:32N 52°36' E 001°45'0 0.0
2015-Jul-23 13:32N 52°36' E 001°45'0 0.0
2015-Jul-23 12:32N 52°36' E 001°45'0 0.0
2015-Jul-23 11:32N 52°36' E 001°45'0 0.0
2015-Jul-23 10:32N 52°36' E 001°45'0 0.1
2015-Jul-23 09:32N 52°36' E 001°45'0 0.1
2015-Jul-23 08:33N 52°36' E 001°45'1 1.2
2015-Jul-23 07:31N 52°35' E 001°44'0 0.0
2015-Jul-23 06:31N 52°35' E 001°44'0 0.0
2015-Jul-23 05:31N 52°35' E 001°44'0 0.0
2015-Jul-23 04:31N 52°35' E 001°44'0 0.0
2015-Jul-23 03:31N 52°35' E 001°44'0 0.0
2015-Jul-23 02:31N 52°35' E 001°44'0 0.0
2015-Jul-23 01:31N 52°35' E 001°44'0 0.0
2015-Jul-23 00:31N 52°35' E 001°44'0 0.0
2015-Jul-22 23:31N 52°35' E 001°44'0 0.0
2015-Jul-22 22:31N 52°35' E 001°44'0 0.0
2015-Jul-22 21:31N 52°35' E 001°44'0 0.0
2015-Jul-22 20:31N 52°35' E 001°44'0 0.0
2015-Jul-22 19:31N 52°35' E 001°44'0 0.0
2015-Jul-22 18:31N 52°35' E 001°44'0 0.0
2015-Jul-22 17:34N 52°35' E 001°44'0 0.0
2015-Jul-22 16:33N 52°35' E 001°44'0 0.0
2015-Jul-22 15:33N 52°35' E 001°44'0 0.0
2015-Jul-22 14:33N 52°35' E 001°44'0 0.0
2015-Jul-22 13:33N 52°35' E 001°44'0 0.0
2015-Jul-22 12:33N 52°35' E 001°44'0 0.0
2015-Jul-22 11:33N 52°35' E 001°44'0 0.0
2015-Jul-22 10:33N 52°35' E 001°44'0 0.0
2015-Jul-22 09:33N 52°35' E 001°44'0 0.0
2015-Jul-22 08:33N 52°35' E 001°44'0 0.0
2015-Jul-22 07:33N 52°35' E 001°44'0 0.0
2015-Jul-22 06:33N 52°35' E 001°44'0 0.0
2015-Jul-22 05:33N 52°35' E 001°44'0 0.0
2015-Jul-22 04:33N 52°35' E 001°44'0 0.0
2015-Jul-22 03:33N 52°35' E 001°44'0 0.0
2015-Jul-22 02:33N 52°35' E 001°44'0 0.0
2015-Jul-22 01:33N 52°35' E 001°44'0 0.0
2015-Jul-22 00:33N 52°35' E 001°44'0 0.0
2015-Jul-21 23:33N 52°35' E 001°44'0 0.0
2015-Jul-21 22:33N 52°35' E 001°44'0 0.0
2015-Jul-21 21:33N 52°35' E 001°44'0 0.0
2015-Jul-21 20:33N 52°35' E 001°44'0 0.0
2015-Jul-21 19:33N 52°35' E 001°44'0 0.0
2015-Jul-21 18:33N 52°35' E 001°44'0 0.0
2015-Jul-21 17:33N 52°35' E 001°44'0 0.0
2015-Jul-21 16:33N 52°35' E 001°44'0 0.0
2015-Jul-21 15:33N 52°35' E 001°44'0 0.0
2015-Jul-21 14:33N 52°35' E 001°44'0 0.0
2015-Jul-21 13:33N 52°35' E 001°44'1 1.3
2015-Jul-21 12:32N 52°36' E 001°46'0 0.0
2015-Jul-21 11:32N 52°36' E 001°46'0 0.0
2015-Jul-21 10:32N 52°36' E 001°46'0 0.0
2015-Jul-21 09:32N 52°36' E 001°46'6 6.3
2015-Jul-21 08:33N 52°42' E 001°46'1110.9
2015-Jul-21 07:33N 52°51' E 001°37'10 9.7
2015-Jul-21 06:33N 52°59' E 001°29'136110.4
2015-Jul-21 05:19N 54°39' W 001°08'8216.9
2015-Jul-21 00:29N 53°41' E 000°31'9 9.2
2015-Jul-20 23:33N 53°48' E 000°23'10 9.9
2015-Jul-20 22:33N 53°56' E 000°12'1010.3
2015-Jul-20 21:33N 54°05' E 000°02'1110.9
2015-Jul-20 20:33N 54°13' W 000°09'1111.4
2015-Jul-20 19:33N 54°22' W 000°21'1211.9
2015-Jul-20 18:33N 54°31' W 000°34'1111.4
2015-Jul-20 17:33N 54°37' W 000°51'10 9.4
2015-Jul-20 16:27N 54°38' W 001°09'4 1.4
2015-Jul-20 13:21N 54°35' W 001°14'0 0.0
2015-Jul-20 12:24N 54°35' W 001°14'0 0.0
2015-Jul-20 11:27N 54°35' W 001°14'0 0.0
2015-Jul-20 05:27N 54°35' W 001°14'  

Dump ship's entire track history